TAF and METAR

Decoding for American and Canadian METARs and TAFs is not fully implemented.
No METAR available for Arctic Bay

TAF for Arctic Bay

TAF CYAB 181238Z 1813/1822 31005KT P6SM SCT015 BKN030 TEMPO 1813/1822 5SM -SN BKN015 OVC030 RMK NXT FCST BY 181900Z
Report created 18. apr 14:38

between 18. apr 15:00 - 19. apr 00:00

wind 5 knots from NW (310°)
Arctic Bay in Canada at 22m

Latest 5 airports